Time;durP1;ratioP1;P1;durP2;ratioP2;P2;SDS_P1;SDS_P2;PMS_P1;PMS_P2;Temp;Humidity;BMP_temperature;BMP_pressure;BME280_temperature;BME280_humidity;BME280_pressure;Samples;Min_cycle;Max_cycle;Signal;HPM_P1;HPM_P2
2021/01/30 00:01:05;;;;;;;6.57;5.67;;;4.80;99.90;;;;;;4991361;28;20446;-66
2021/01/30 00:03:32;;;;;;;7.40;6.63;;;4.60;99.90;;;;;;4977636;28;20537;-67
2021/01/30 00:05:58;;;;;;;7.23;6.63;;;4.50;99.90;;;;;;4988205;28;20473;-67
2021/01/30 00:08:25;;;;;;;5.13;4.67;;;4.50;99.90;;;;;;4996768;28;20576;-67
2021/01/30 00:10:52;;;;;;;6.90;4.73;;;4.60;99.90;;;;;;4990420;28;20433;-65
2021/01/30 00:13:18;;;;;;;5.60;3.40;;;4.60;99.90;;;;;;4979723;28;20462;-66
2021/01/30 00:15:46;;;;;;;5.33;3.33;;;4.50;99.90;;;;;;4991260;28;20473;-68
2021/01/30 00:18:13;;;;;;;8.60;4.73;;;4.40;99.90;;;;;;4997871;28;20467;-68
2021/01/30 00:20:40;;;;;;;4.60;3.57;;;4.30;99.90;;;;;;4995328;28;20519;-66
2021/01/30 00:23:08;;;;;;;4.60;4.00;;;4.20;99.90;;;;;;4991274;28;20482;-66
2021/01/30 00:25:36;;;;;;;4.00;3.00;;;4.20;99.90;;;;;;4992765;28;20518;-65
2021/01/30 00:28:04;;;;;;;6.23;4.50;;;4.10;99.90;;;;;;4993036;28;20439;-66
2021/01/30 00:30:32;;;;;;;8.33;3.97;;;4.10;99.90;;;;;;4996904;28;20952;-65
2021/01/30 00:33:03;;;;;;;3.17;2.87;;;4.10;99.90;;;;;;4993111;28;20436;-65
2021/01/30 00:35:31;;;;;;;3.77;2.97;;;4.10;99.90;;;;;;4994455;28;20579;-66
2021/01/30 00:37:59;;;;;;;3.93;3.13;;;4.10;99.90;;;;;;4998110;28;20467;-68
2021/01/30 00:40:26;;;;;;;7.10;3.93;;;4.00;99.90;;;;;;4994385;28;20459;-66
2021/01/30 00:42:52;;;;;;;5.30;4.60;;;3.70;99.90;;;;;;4998689;28;20432;-67
2021/01/30 00:45:21;;;;;;;4.60;3.80;;;3.60;99.90;;;;;;4990696;28;20432;-66
2021/01/30 00:47:48;;;;;;;5.80;4.07;;;3.60;99.90;;;;;;4994903;28;20964;-66
2021/01/30 00:50:17;;;;;;;5.10;4.27;;;3.60;99.90;;;;;;4994488;28;20443;-66
2021/01/30 00:52:44;;;;;;;4.80;2.43;;;3.50;99.90;;;;;;4994433;28;20469;-68
2021/01/30 00:55:11;;;;;;;9.50;3.53;;;3.50;99.90;;;;;;4979561;28;20440;-66
2021/01/30 00:57:38;;;;;;;5.43;4.70;;;3.50;99.90;;;;;;5000313;28;21614;-66
2021/01/30 01:00:08;;;;;;;4.17;2.93;;;3.40;99.90;;;;;;5004872;28;20492;-67
2021/01/30 01:02:36;;;;;;;2.90;2.40;;;3.40;99.90;;;;;;4997502;28;20557;-66
2021/01/30 01:05:03;;;;;;;7.40;5.83;;;3.50;99.90;;;;;;5000409;28;20424;-66
2021/01/30 01:07:31;;;;;;;4.90;3.53;;;3.60;99.90;;;;;;5002331;28;20826;-67
2021/01/30 01:09:57;;;;;;;5.80;4.50;;;3.70;99.90;;;;;;4997104;28;20497;-66
2021/01/30 01:12:24;;;;;;;2.93;2.60;;;3.70;99.90;;;;;;4988004;28;20544;-67
2021/01/30 01:14:51;;;;;;;4.67;3.13;;;3.80;99.90;;;;;;4982956;28;20514;-66
2021/01/30 01:17:18;;;;;;;7.03;4.53;;;3.70;99.90;;;;;;4990855;28;20526;-67
2021/01/30 01:19:44;;;;;;;7.00;6.13;;;3.60;99.90;;;;;;4989764;28;20436;-67
2021/01/30 01:22:11;;;;;;;11.53;4.97;;;3.60;99.90;;;;;;4998641;28;20548;-68
2021/01/30 01:24:38;;;;;;;4.00;3.63;;;3.70;99.90;;;;;;5004415;28;20549;-67
2021/01/30 01:27:05;;;;;;;6.23;3.57;;;3.80;99.90;;;;;;4994674;28;20480;-66
2021/01/30 01:29:32;;;;;;;4.83;3.20;;;3.80;99.90;;;;;;4987800;28;20439;-68
2021/01/30 01:31:58;;;;;;;6.37;4.50;;;3.80;99.90;;;;;;4997583;28;20475;-67
2021/01/30 01:34:30;;;;;;;6.57;5.43;;;3.60;99.90;;;;;;4998721;28;20471;-67
2021/01/30 01:37:00;;;;;;;5.07;4.60;;;3.50;99.90;;;;;;4986014;28;20455;-67
2021/01/30 01:39:28;;;;;;;8.83;6.73;;;3.30;99.90;;;;;;5004460;28;20562;-67
2021/01/30 01:42:06;;;;;;;5.03;4.27;;;3.30;99.90;;;;;;4998077;28;20475;-67
2021/01/30 01:44:33;;;;;;;8.00;4.20;;;3.50;99.90;;;;;;4999385;28;20548;-67
2021/01/30 01:47:01;;;;;;;19.70;9.57;;;3.40;99.90;;;;;;5001193;28;20551;-66
2021/01/30 01:49:32;;;;;;;13.40;7.70;;;3.30;99.90;;;;;;5001651;28;20486;-67
2021/01/30 01:52:10;;;;;;;15.97;9.40;;;3.20;99.90;;;;;;5000697;28;20478;-67
2021/01/30 01:54:39;;;;;;;3.93;3.60;;;3.30;99.90;;;;;;5000379;28;20527;-67
2021/01/30 01:57:11;;;;;;;8.70;5.40;;;3.50;99.90;;;;;;4980695;28;20485;-67
2021/01/30 01:59:42;;;;;;;10.13;8.63;;;3.40;99.90;;;;;;5000185;28;20424;-68
2021/01/30 02:02:10;;;;;;;12.60;8.80;;;3.40;99.90;;;;;;5000880;28;20478;-67
2021/01/30 02:04:37;;;;;;;6.07;4.67;;;3.30;99.90;;;;;;4998987;28;20467;-67
2021/01/30 02:07:04;;;;;;;11.63;6.40;;;3.10;99.90;;;;;;4999639;28;20856;-66
2021/01/30 02:09:31;;;;;;;10.77;6.87;;;3.00;99.90;;;;;;5002805;28;21058;-68
2021/01/30 02:12:02;;;;;;;7.33;4.70;;;3.10;99.90;;;;;;5000115;28;20436;-67
2021/01/30 02:14:33;;;;;;;18.30;7.10;;;3.00;99.90;;;;;;4990486;28;20527;-67
2021/01/30 02:17:15;;;;;;;4.30;4.00;;;2.90;99.90;;;;;;4991435;28;20497;-67
2021/01/30 02:20:15;;;;;;;9.57;6.50;;;2.90;99.90;;;;;;4999528;28;20523;-67
2021/01/30 02:23:20;;;;;;;9.97;5.87;;;2.90;99.90;;;;;;4995296;28;20438;-67
2021/01/30 02:26:34;;;;;;;7.70;3.80;;;2.90;99.90;;;;;;4993876;28;20428;-66
2021/01/30 02:29:12;;;;;;;12.70;6.70;;;2.80;99.90;;;;;;4996549;28;20821;-66
2021/01/30 02:31:51;;;;;;;12.53;6.03;;;2.60;99.90;;;;;;4994161;28;20467;-66
2021/01/30 02:34:35;;;;;;;5.40;4.07;;;2.60;99.90;;;;;;4996352;28;20515;-66
2021/01/30 02:37:08;;;;;;;13.00;7.70;;;2.50;99.90;;;;;;4993895;28;22780;-67
2021/01/30 02:39:39;;;;;;;6.40;3.00;;;2.50;99.90;;;;;;4993867;28;20429;-68
2021/01/30 02:42:12;;;;;;;7.90;5.73;;;2.70;99.90;;;;;;4994819;28;20435;-67
2021/01/30 02:44:42;;;;;;;6.03;4.27;;;2.60;99.90;;;;;;4993910;28;20545;-67
2021/01/30 02:47:12;;;;;;;4.90;3.90;;;2.40;99.90;;;;;;4990479;28;20561;-66
2021/01/30 02:49:43;;;;;;;9.80;6.20;;;2.50;99.90;;;;;;4992714;28;20438;-66
2021/01/30 02:52:14;;;;;;;10.50;7.47;;;2.60;99.90;;;;;;4992304;28;20485;-67
2021/01/30 02:54:41;;;;;;;8.50;6.27;;;2.60;99.90;;;;;;4989817;28;20496;-66
2021/01/30 02:57:11;;;;;;;7.33;6.63;;;2.50;99.90;;;;;;4993840;28;20461;-66
2021/01/30 02:59:43;;;;;;;6.80;4.00;;;2.50;99.90;;;;;;4991274;28;20519;-67
2021/01/30 03:02:10;;;;;;;7.87;6.33;;;2.40;99.90;;;;;;4991095;28;21863;-66
2021/01/30 03:04:37;;;;;;;6.90;6.03;;;2.50;99.90;;;;;;4988928;28;20485;-68
2021/01/30 03:07:28;;;;;;;14.47;8.03;;;2.50;99.90;;;;;;4992928;28;22791;-67
2021/01/30 03:10:04;;;;;;;14.00;9.33;;;2.50;99.90;;;;;;4998107;28;20520;-67
2021/01/30 03:12:40;;;;;;;6.47;4.77;;;2.40;99.90;;;;;;4998250;28;20439;-66
2021/01/30 03:15:13;;;;;;;7.07;4.90;;;2.40;99.90;;;;;;4995136;28;20547;-66
2021/01/30 03:17:41;;;;;;;3.03;2.50;;;2.30;99.90;;;;;;4992273;28;20496;-67
2021/01/30 03:20:10;;;;;;;7.27;4.57;;;2.10;99.90;;;;;;4994873;28;20446;-66
2021/01/30 03:22:39;;;;;;;11.33;8.07;;;2.10;99.90;;;;;;4993553;28;20461;-67
2021/01/30 03:25:07;;;;;;;7.33;4.90;;;2.20;99.90;;;;;;4992165;28;20466;-66
2021/01/30 03:27:35;;;;;;;11.30;8.57;;;2.30;99.90;;;;;;4995290;28;20882;-66
2021/01/30 03:30:01;;;;;;;11.27;7.90;;;2.10;99.90;;;;;;4998118;28;20954;-66
2021/01/30 03:32:29;;;;;;;10.97;7.63;;;2.30;99.90;;;;;;4994450;28;20567;-67
2021/01/30 03:34:57;;;;;;;11.57;6.80;;;2.40;99.90;;;;;;4995458;28;20867;-66
2021/01/30 03:37:24;;;;;;;15.17;7.30;;;2.40;99.90;;;;;;4994144;28;20455;-66
2021/01/30 03:39:51;;;;;;;14.87;8.30;;;2.30;99.90;;;;;;4992282;28;20436;-67
2021/01/30 03:42:18;;;;;;;14.37;5.33;;;2.30;99.90;;;;;;4996125;28;20654;-67
2021/01/30 03:44:45;;;;;;;6.70;5.33;;;2.50;99.90;;;;;;4988579;28;20600;-67
2021/01/30 03:47:13;;;;;;;14.87;7.90;;;2.30;99.90;;;;;;4991815;28;20995;-66
2021/01/30 03:49:39;;;;;;;10.70;7.20;;;2.30;99.90;;;;;;4990990;28;20478;-66
2021/01/30 03:52:06;;;;;;;8.33;7.40;;;2.20;99.90;;;;;;4979744;28;20466;-67
2021/01/30 03:54:35;;;;;;;11.33;7.70;;;2.30;99.90;;;;;;4989294;28;20540;-68
2021/01/30 03:57:03;;;;;;;13.60;7.87;;;2.30;99.90;;;;;;4991886;28;20562;-66
2021/01/30 03:59:30;;;;;;;9.63;7.03;;;2.30;99.90;;;;;;4993244;28;20586;-66
2021/01/30 04:01:56;;;;;;;7.73;4.70;;;2.50;99.90;;;;;;4994129;28;20527;-66
2021/01/30 04:04:23;;;;;;;11.70;6.50;;;2.40;99.90;;;;;;4986189;28;20471;-67
2021/01/30 04:06:51;;;;;;;12.97;8.77;;;2.20;99.90;;;;;;4995433;28;20913;-65
2021/01/30 04:09:19;;;;;;;9.70;8.80;;;2.40;99.90;;;;;;4995184;28;20480;-67
2021/01/30 04:11:47;;;;;;;3.60;2.97;;;2.40;99.90;;;;;;4995548;28;20467;-67
2021/01/30 04:14:14;;;;;;;6.40;4.97;;;2.20;99.90;;;;;;5000853;28;21506;-67
2021/01/30 04:16:41;;;;;;;7.23;5.40;;;1.90;99.90;;;;;;4999837;28;20488;-66
2021/01/30 04:19:08;;;;;;;5.77;5.27;;;1.80;99.90;;;;;;4993914;28;20572;-67
2021/01/30 04:21:35;;;;;;;12.60;6.07;;;2.00;99.90;;;;;;4993365;28;20681;-67
2021/01/30 04:24:02;;;;;;;3.27;3.00;;;1.90;99.90;;;;;;4984678;28;20783;-67
2021/01/30 04:26:28;;;;;;;4.03;2.43;;;1.90;99.90;;;;;;4988777;28;21479;-67
2021/01/30 04:28:55;;;;;;;10.00;6.23;;;2.00;99.90;;;;;;4986326;28;20495;-67
2021/01/30 04:31:22;;;;;;;5.20;4.03;;;2.00;99.90;;;;;;4985838;28;20462;-67
2021/01/30 04:33:52;;;;;;;8.00;5.60;;;2.00;99.90;;;;;;4987238;28;21147;-67
2021/01/30 04:36:21;;;;;;;6.23;5.10;;;1.90;99.90;;;;;;4983399;28;20930;-67
2021/01/30 04:38:48;;;;;;;7.77;5.80;;;1.90;99.90;;;;;;4989760;28;20556;-68
2021/01/30 04:41:31;;;;;;;5.43;4.43;;;2.00;99.90;;;;;;4984379;28;20461;-67
2021/01/30 04:44:02;;;;;;;7.97;3.67;;;2.00;99.90;;;;;;4985959;28;20567;-66
2021/01/30 04:46:46;;;;;;;8.20;5.10;;;2.10;99.90;;;;;;4990559;28;20431;-67
2021/01/30 04:49:21;;;;;;;9.20;5.40;;;2.20;99.90;;;;;;4985887;28;20554;-68
2021/01/30 04:51:55;;;;;;;4.70;3.93;;;2.30;99.90;;;;;;4991053;28;20988;-68
2021/01/30 04:54:46;;;;;;;4.53;4.13;;;2.00;99.90;;;;;;4988685;28;20510;-67
2021/01/30 04:57:29;;;;;;;7.40;4.40;;;1.70;99.90;;;;;;4985570;28;20493;-66
2021/01/30 05:00:09;;;;;;;4.73;4.30;;;1.70;99.90;;;;;;4981966;28;20554;-66
2021/01/30 05:02:44;;;;;;;6.10;5.60;;;1.90;99.90;;;;;;4984488;28;20601;-67
2021/01/30 05:05:15;;;;;;;7.30;2.70;;;1.90;99.90;;;;;;4983350;28;20431;-67
2021/01/30 05:07:45;;;;;;;3.80;2.90;;;2.00;99.90;;;;;;4986495;28;20530;-66
2021/01/30 05:10:17;;;;;;;4.80;3.83;;;1.90;99.90;;;;;;4994160;28;20457;-66
2021/01/30 05:12:51;;;;;;;7.60;5.40;;;1.80;99.90;;;;;;4985318;28;20494;-67
2021/01/30 05:15:23;;;;;;;6.93;1.93;;;1.80;99.90;;;;;;4989782;28;20898;-67
2021/01/30 05:17:58;;;;;;;8.33;5.43;;;1.80;99.90;;;;;;4992564;28;20551;-66
2021/01/30 05:20:27;;;;;;;7.37;4.47;;;1.60;99.90;;;;;;4987012;28;20983;-68
2021/01/30 05:22:54;;;;;;;4.00;3.70;;;1.80;99.90;;;;;;4995849;28;20531;-68
2021/01/30 05:25:23;;;;;;;8.23;4.77;;;1.80;99.90;;;;;;4986615;28;20540;-67
2021/01/30 05:28:09;;;;;;;4.43;4.03;;;1.90;99.90;;;;;;4985100;28;20455;-67
2021/01/30 05:30:52;;;;;;;3.47;2.60;;;2.00;99.90;;;;;;4996915;28;20469;-68
2021/01/30 05:33:41;;;;;;;3.20;2.63;;;1.80;99.90;;;;;;4992482;28;20598;-67
2021/01/30 05:36:14;;;;;;;5.53;5.20;;;1.80;99.90;;;;;;4992273;28;20481;-67
2021/01/30 05:39:02;;;;;;;2.73;2.53;;;1.70;99.90;;;;;;4991387;28;24947;-67
2021/01/30 05:41:40;;;;;;;5.47;4.00;;;1.70;99.90;;;;;;4984290;28;20543;-67
2021/01/30 05:44:11;;;;;;;3.40;3.10;;;1.70;99.90;;;;;;4994856;28;20468;-68
2021/01/30 05:46:39;;;;;;;2.20;1.90;;;1.70;99.90;;;;;;4992966;28;20526;-67
2021/01/30 05:49:15;;;;;;;4.23;3.40;;;1.60;99.90;;;;;;4991099;28;20491;-67
2021/01/30 05:51:47;;;;;;;4.50;3.60;;;1.70;99.90;;;;;;4989967;28;20464;-66
2021/01/30 05:54:14;;;;;;;7.70;6.27;;;1.70;99.90;;;;;;4996984;28;21604;-67
2021/01/30 05:56:44;;;;;;;4.23;1.70;;;1.70;99.90;;;;;;4972840;28;20516;-67
2021/01/30 05:59:14;;;;;;;2.33;2.13;;;1.60;99.90;;;;;;4987406;28;20522;-68
2021/01/30 06:01:41;;;;;;;8.07;2.77;;;1.60;99.90;;;;;;4990577;28;20444;-67
2021/01/30 06:04:11;;;;;;;2.80;2.60;;;1.50;99.90;;;;;;4977821;28;20465;-67
2021/01/30 06:06:39;;;;;;;3.60;3.27;;;1.50;99.90;;;;;;4991274;28;20689;-67
2021/01/30 06:09:09;;;;;;;5.57;4.43;;;1.40;99.90;;;;;;4991133;28;20489;-66
2021/01/30 06:11:47;;;;;;;4.30;3.50;;;1.50;99.90;;;;;;4992995;28;20855;-67
2021/01/30 06:14:29;;;;;;;6.57;3.00;;;1.50;99.90;;;;;;4989559;28;20651;-66
2021/01/30 06:16:59;;;;;;;4.23;2.50;;;1.60;99.90;;;;;;4995739;28;20554;-66
2021/01/30 06:19:29;;;;;;;3.57;3.23;;;1.40;99.90;;;;;;4982483;28;20483;-68
2021/01/30 06:22:13;;;;;;;5.33;2.23;;;1.40;99.90;;;;;;4995541;28;20989;-66
2021/01/30 06:24:44;;;;;;;3.50;3.17;;;1.40;99.90;;;;;;4992213;28;20467;-66
2021/01/30 06:27:23;;;;;;;4.00;3.23;;;1.40;99.90;;;;;;4989380;28;20468;-68
2021/01/30 06:29:52;;;;;;;3.43;2.87;;;1.50;99.90;;;;;;4991429;28;20933;-68
2021/01/30 06:32:26;;;;;;;1.50;1.20;;;1.30;99.90;;;;;;4991236;28;20549;-65
2021/01/30 06:35:06;;;;;;;6.40;3.07;;;1.40;99.90;;;;;;4997024;28;20468;-68
2021/01/30 06:37:39;;;;;;;0.93;0.83;;;1.30;99.90;;;;;;4994991;28;20506;-67
2021/01/30 06:40:15;;;;;;;1.30;1.20;;;1.40;99.90;;;;;;4993874;28;20544;-67
2021/01/30 06:42:44;;;;;;;3.13;2.30;;;1.50;99.90;;;;;;4993195;28;21509;-67
2021/01/30 06:45:26;;;;;;;1.63;1.50;;;1.50;99.90;;;;;;4992061;28;20463;-67
2021/01/30 06:47:53;;;;;;;2.60;1.90;;;1.40;99.90;;;;;;4990034;28;20476;-68
2021/01/30 06:50:29;;;;;;;5.90;4.83;;;1.40;99.90;;;;;;4986840;28;20469;-66
2021/01/30 06:53:18;;;;;;;3.20;1.83;;;1.30;99.90;;;;;;4989343;28;20454;-67
2021/01/30 06:55:46;;;;;;;1.77;1.63;;;1.30;99.90;;;;;;4986915;28;20496;-67
2021/01/30 06:58:21;;;;;;;2.00;1.83;;;1.30;99.90;;;;;;4987091;28;20463;-68
2021/01/30 07:00:48;;;;;;;3.43;3.00;;;1.30;99.90;;;;;;4994034;28;20544;-67
2021/01/30 07:03:22;;;;;;;2.90;1.13;;;1.40;99.90;;;;;;4995559;28;20465;-67
2021/01/30 07:06:00;;;;;;;2.60;1.53;;;1.40;99.90;;;;;;4996790;28;20432;-66
2021/01/30 07:09:00;;;;;;;2.17;1.43;;;1.40;99.90;;;;;;4992077;28;20478;-67
2021/01/30 07:11:46;;;;;;;10.43;5.77;;;1.40;99.90;;;;;;4987341;28;20489;-67
2021/01/30 07:14:26;;;;;;;3.63;3.33;;;1.50;99.90;;;;;;4999269;28;20452;-67
2021/01/30 07:16:59;;;;;;;2.43;2.23;;;1.50;99.90;;;;;;4998043;28;20469;-68
2021/01/30 07:19:37;;;;;;;3.03;1.70;;;1.60;99.90;;;;;;5001924;28;20590;-69
2021/01/30 07:22:09;;;;;;;1.70;1.30;;;1.50;99.90;;;;;;5004864;28;20432;-68
2021/01/30 07:24:42;;;;;;;2.03;1.73;;;1.50;99.90;;;;;;5005184;28;20428;-69
2021/01/30 07:27:15;;;;;;;1.50;1.40;;;1.50;99.90;;;;;;4996779;28;20475;-66
2021/01/30 07:29:50;;;;;;;2.40;2.20;;;1.50;99.90;;;;;;4990346;28;21397;-67
2021/01/30 07:32:30;;;;;;;3.10;1.87;;;1.60;99.90;;;;;;4986930;28;20438;-65
2021/01/30 07:35:03;;;;;;;2.23;2.13;;;1.60;99.90;;;;;;4991702;28;21148;-66
2021/01/30 07:37:42;;;;;;;2.40;2.00;;;1.50;99.90;;;;;;4998425;28;20433;-66
2021/01/30 07:40:14;;;;;;;6.87;2.83;;;1.60;99.90;;;;;;4992803;28;20514;-67
2021/01/30 07:42:45;;;;;;;3.67;2.63;;;1.60;99.90;;;;;;4987039;28;20516;-66
2021/01/30 07:45:18;;;;;;;2.77;2.17;;;1.60;99.90;;;;;;4983086;28;21227;-66
2021/01/30 07:47:49;;;;;;;1.03;0.93;;;1.60;99.90;;;;;;4987879;28;20460;-66
2021/01/30 07:50:27;;;;;;;4.40;4.03;;;1.60;99.90;;;;;;4988095;28;20836;-66
2021/01/30 07:53:04;;;;;;;2.90;2.70;;;1.50;99.90;;;;;;4993455;28;20509;-67
2021/01/30 07:55:31;;;;;;;2.90;2.70;;;1.40;99.90;;;;;;4979092;28;20442;-65
2021/01/30 07:58:32;;;;;;;3.27;2.97;;;1.70;99.90;;;;;;4988372;28;20538;-67
2021/01/30 08:01:42;;;;;;;1.27;1.17;;;2.00;99.90;;;;;;4989220;28;20857;-67
2021/01/30 08:04:26;;;;;;;6.70;2.67;;;1.80;99.90;;;;;;4928260;28;20524;-67
2021/01/30 08:07:05;;;;;;;1.77;1.20;;;1.80;99.90;;;;;;4928282;28;20483;-67
2021/01/30 08:09:41;;;;;;;3.30;2.50;;;1.80;99.90;;;;;;4976065;28;20594;-66
2021/01/30 08:12:16;;;;;;;2.50;2.07;;;1.60;99.90;;;;;;4994828;28;20495;-67
2021/01/30 08:14:53;;;;;;;2.17;1.97;;;1.50;99.90;;;;;;5001387;28;20510;-67
2021/01/30 08:17:37;;;;;;;2.57;2.37;;;1.50;99.90;;;;;;4999235;28;20675;-66
2021/01/30 08:20:12;;;;;;;1.90;1.80;;;1.40;99.90;;;;;;5001204;28;20470;-66
2021/01/30 08:22:45;;;;;;;7.63;4.00;;;1.40;99.90;;;;;;5005375;28;20514;-66
2021/01/30 08:25:17;;;;;;;1.03;0.93;;;1.40;99.90;;;;;;4998680;28;20480;-65
2021/01/30 08:27:47;;;;;;;1.53;1.43;;;1.30;99.90;;;;;;5004819;28;20487;-66
2021/01/30 08:30:18;;;;;;;4.27;3.30;;;1.30;99.90;;;;;;4997144;28;20536;-67
2021/01/30 08:32:56;;;;;;;4.00;3.30;;;1.50;99.90;;;;;;5003917;28;20467;-66
2021/01/30 08:35:49;;;;;;;3.40;3.10;;;1.50;99.90;;;;;;4989553;28;20920;-67
2021/01/30 08:38:39;;;;;;;1.90;1.60;;;1.60;99.90;;;;;;5001279;28;20485;-65
2021/01/30 08:41:37;;;;;;;4.37;2.87;;;1.80;99.90;;;;;;5000672;28;20570;-66
2021/01/30 08:44:04;;;;;;;4.43;3.03;;;2.00;99.90;;;;;;5000872;28;20433;-68
2021/01/30 08:46:33;;;;;;;1.47;1.37;;;2.00;99.90;;;;;;5003043;28;20514;-67
2021/01/30 08:49:06;;;;;;;1.50;1.40;;;2.00;99.90;;;;;;5005628;28;20500;-66
2021/01/30 08:51:33;;;;;;;1.67;1.57;;;2.00;99.90;;;;;;5005854;28;20445;-68
2021/01/30 08:54:26;;;;;;;2.27;1.80;;;2.00;99.90;;;;;;4990887;28;20497;-67
2021/01/30 08:56:54;;;;;;;2.93;2.60;;;2.10;99.90;;;;;;4999964;28;20462;-67
2021/01/30 08:59:46;;;;;;;1.53;1.43;;;2.00;99.90;;;;;;5006317;28;20480;-67
2021/01/30 09:02:46;;;;;;;2.40;2.20;;;2.00;99.90;;;;;;5004668;28;20468;-67
2021/01/30 09:05:33;;;;;;;3.20;2.40;;;2.00;99.90;;;;;;5006459;28;20436;-67
2021/01/30 09:08:40;;;;;;;9.03;8.23;;;2.10;99.90;;;;;;5004522;28;20834;-67
2021/01/30 09:11:46;;;;;;;2.03;1.83;;;2.20;99.90;;;;;;5005244;28;20827;-68
2021/01/30 09:14:39;;;;;;;5.60;3.53;;;2.40;99.90;;;;;;5003886;28;20453;-67
2021/01/30 09:17:36;;;;;;;5.23;3.70;;;2.60;99.90;;;;;;5006221;28;20514;-67
2021/01/30 09:20:19;;;;;;;1.77;1.63;;;2.50;99.90;;;;;;4994203;28;20512;-67
2021/01/30 09:23:15;;;;;;;2.20;1.90;;;2.30;99.90;;;;;;4998238;28;20483;-67
2021/01/30 09:26:00;;;;;;;3.00;2.70;;;2.30;99.90;;;;;;4995017;28;20420;-67
2021/01/30 09:28:29;;;;;;;2.20;1.53;;;2.30;99.90;;;;;;4996745;28;20535;-67
2021/01/30 09:31:00;;;;;;;2.93;2.47;;;2.40;99.90;;;;;;4997873;28;20525;-67
2021/01/30 09:33:30;;;;;;;1.43;1.13;;;2.30;99.90;;;;;;5000182;28;20904;-67
2021/01/30 09:36:10;;;;;;;2.97;2.77;;;2.40;99.90;;;;;;4995446;28;20639;-68
2021/01/30 09:38:39;;;;;;;1.20;0.87;;;2.20;99.90;;;;;;4995522;28;20513;-67
2021/01/30 09:41:22;;;;;;;1.93;1.43;;;2.10;99.90;;;;;;5001844;28;20459;-67
2021/01/30 09:43:50;;;;;;;2.20;2.00;;;2.10;99.90;;;;;;4999855;28;20475;-66
2021/01/30 09:46:21;;;;;;;5.33;2.77;;;2.20;99.90;;;;;;4999728;28;20436;-68
2021/01/30 09:48:49;;;;;;;6.10;2.90;;;2.00;99.90;;;;;;5007427;28;20519;-66
2021/01/30 09:51:16;;;;;;;2.07;1.93;;;1.80;99.90;;;;;;5004794;28;20525;-67
2021/01/30 09:53:50;;;;;;;4.67;3.23;;;1.90;99.90;;;;;;5004023;28;20461;-66
2021/01/30 09:56:18;;;;;;;3.27;2.97;;;1.90;99.90;;;;;;4996127;28;20460;-66
2021/01/30 09:58:51;;;;;;;1.00;0.90;;;2.00;99.90;;;;;;4998117;28;20517;-66
2021/01/30 10:01:26;;;;;;;2.20;2.00;;;2.10;99.90;;;;;;4994604;28;20428;-67
2021/01/30 10:03:53;;;;;;;2.83;2.47;;;2.20;99.90;;;;;;4995244;28;20945;-67
2021/01/30 10:06:30;;;;;;;5.83;2.40;;;2.20;99.90;;;;;;4995015;28;20468;-67
2021/01/30 10:09:08;;;;;;;1.40;1.10;;;2.30;99.90;;;;;;5003406;28;20485;-67
2021/01/30 10:11:37;;;;;;;2.83;2.57;;;2.40;99.90;;;;;;5001606;28;20874;-67
2021/01/30 10:14:04;;;;;;;3.37;2.80;;;2.50;99.90;;;;;;5002920;28;20469;-66
2021/01/30 10:16:32;;;;;;;1.20;1.03;;;2.50;99.90;;;;;;5001653;28;20450;-66
2021/01/30 10:19:02;;;;;;;1.37;1.27;;;2.60;99.90;;;;;;5004170;28;20543;-66
2021/01/30 10:21:34;;;;;;;1.43;1.33;;;2.70;99.90;;;;;;5001192;28;20443;-67
2021/01/30 10:24:11;;;;;;;2.90;2.13;;;2.80;99.90;;;;;;5005867;28;20714;-67
2021/01/30 10:26:38;;;;;;;2.30;1.53;;;3.00;99.90;;;;;;5003504;28;20464;-67
2021/01/30 10:29:07;;;;;;;2.47;2.13;;;3.20;99.90;;;;;;4989234;28;21091;-66
2021/01/30 10:31:38;;;;;;;1.73;1.63;;;3.20;99.90;;;;;;4999985;28;20876;-67
2021/01/30 10:34:13;;;;;;;2.27;2.07;;;3.20;99.90;;;;;;5006496;28;20826;-67
2021/01/30 10:36:43;;;;;;;1.20;1.10;;;3.10;99.90;;;;;;5004778;28;20488;-66
2021/01/30 10:39:09;;;;;;;3.67;2.20;;;3.30;99.90;;;;;;5006332;28;20470;-67
2021/01/30 10:41:36;;;;;;;2.53;2.33;;;3.20;99.90;;;;;;5005594;28;20502;-66
2021/01/30 10:44:05;;;;;;;2.27;2.07;;;3.00;99.90;;;;;;5004488;28;20937;-67
2021/01/30 10:46:40;;;;;;;4.30;2.23;;;3.10;99.90;;;;;;4997989;28;20508;-66
2021/01/30 10:49:10;;;;;;;0.90;0.80;;;3.10;99.90;;;;;;5004664;28;20480;-67
2021/01/30 10:51:37;;;;;;;1.53;1.40;;;3.10;99.90;;;;;;5001795;28;20589;-67
2021/01/30 10:54:26;;;;;;;1.73;1.63;;;3.10;99.90;;;;;;5002830;28;20457;-67
2021/01/30 10:57:25;;;;;;;4.03;2.53;;;3.20;99.90;;;;;;4986396;28;20586;-66
2021/01/30 10:59:55;;;;;;;1.93;1.73;;;3.30;99.90;;;;;;4991383;28;20567;-66
2021/01/30 11:02:39;;;;;;;3.80;3.50;;;3.10;99.90;;;;;;5000518;28;20443;-65
2021/01/30 11:05:26;;;;;;;1.10;1.00;;;3.20;99.90;;;;;;4991913;28;20510;-66
2021/01/30 11:07:55;;;;;;;2.33;2.03;;;3.10;99.90;;;;;;4983213;28;20477;-66
2021/01/30 11:10:27;;;;;;;1.30;1.20;;;3.10;99.90;;;;;;4996627;28;20489;-65
2021/01/30 11:13:06;;;;;;;1.80;1.53;;;3.20;99.90;;;;;;4995667;28;20460;-67
2021/01/30 11:15:34;;;;;;;3.23;2.57;;;3.20;99.90;;;;;;4998867;28;20451;-66
2021/01/30 11:18:15;;;;;;;2.63;2.47;;;3.10;99.90;;;;;;4995081;28;20584;-67
2021/01/30 11:20:46;;;;;;;2.33;2.03;;;3.20;99.90;;;;;;4997922;28;20855;-67
2021/01/30 11:23:34;;;;;;;5.00;1.73;;;3.20;99.90;;;;;;5003947;28;20461;-67
2021/01/30 11:26:19;;;;;;;6.03;2.70;;;3.40;99.90;;;;;;5003256;28;20470;-68
2021/01/30 11:28:46;;;;;;;2.30;1.90;;;3.40;99.90;;;;;;5002879;28;20535;-66
2021/01/30 11:31:14;;;;;;;2.87;2.60;;;3.30;99.90;;;;;;4996031;28;20469;-67
2021/01/30 11:33:43;;;;;;;1.83;1.20;;;3.30;99.90;;;;;;4999115;28;20431;-68
2021/01/30 11:36:15;;;;;;;1.57;1.17;;;3.40;99.90;;;;;;4990391;28;20493;-67
2021/01/30 11:38:43;;;;;;;1.50;1.33;;;3.50;99.90;;;;;;4992156;28;20754;-66
2021/01/30 11:41:13;;;;;;;4.07;2.67;;;3.50;99.90;;;;;;4997989;28;20461;-65
2021/01/30 11:43:39;;;;;;;1.20;1.10;;;3.30;99.90;;;;;;5002373;28;20839;-68
2021/01/30 11:46:06;;;;;;;3.47;3.17;;;3.30;99.90;;;;;;4977101;28;20441;-65
2021/01/30 11:48:33;;;;;;;2.60;2.17;;;3.40;99.90;;;;;;4994490;28;20538;-65
2021/01/30 11:51:01;;;;;;;4.47;2.87;;;3.80;99.90;;;;;;4995277;28;20999;-67
2021/01/30 11:53:30;;;;;;;1.50;1.40;;;3.90;99.90;;;;;;4995660;28;20461;-67
2021/01/30 11:55:57;;;;;;;3.67;3.30;;;3.90;99.90;;;;;;4991335;28;20969;-67
2021/01/30 11:58:24;;;;;;;1.37;0.90;;;4.00;99.90;;;;;;4997120;28;21078;-67
2021/01/30 12:00:51;;;;;;;1.40;1.30;;;4.00;99.90;;;;;;4987020;28;20431;-68
2021/01/30 12:03:22;;;;;;;2.67;2.33;;;4.10;99.90;;;;;;4994379;28;20813;-67
2021/01/30 12:05:49;;;;;;;4.00;2.33;;;4.10;99.90;;;;;;4992893;28;20840;-68
2021/01/30 12:08:17;;;;;;;1.53;1.30;;;4.20;99.90;;;;;;4974006;28;20477;-67
2021/01/30 12:10:44;;;;;;;1.93;1.50;;;4.10;99.90;;;;;;4993294;28;20526;-67
2021/01/30 12:13:11;;;;;;;1.83;1.30;;;4.00;99.90;;;;;;4976321;28;20481;-67
2021/01/30 12:15:37;;;;;;;1.57;1.47;;;3.70;99.90;;;;;;4992347;28;20520;-70
2021/01/30 12:18:08;;;;;;;1.10;0.97;;;3.80;99.90;;;;;;4991552;28;20481;-67
2021/01/30 12:20:35;;;;;;;2.90;2.60;;;3.70;99.90;;;;;;4988895;28;20499;-68
2021/01/30 12:23:02;;;;;;;3.87;1.77;;;3.60;99.90;;;;;;4993532;28;20436;-67
2021/01/30 12:25:31;;;;;;;1.20;1.10;;;3.70;99.90;;;;;;5001354;28;20459;-68
2021/01/30 12:28:00;;;;;;;1.43;1.33;;;3.50;99.90;;;;;;4998445;28;20451;-67
2021/01/30 12:30:31;;;;;;;2.43;2.23;;;3.50;99.90;;;;;;4990336;28;20466;-67
2021/01/30 12:32:58;;;;;;;2.60;1.03;;;3.80;99.90;;;;;;4998904;28;20468;-67
2021/01/30 12:35:28;;;;;;;3.07;2.60;;;3.80;99.90;;;;;;4992923;28;20428;-67
2021/01/30 12:37:55;;;;;;;3.07;1.73;;;3.70;99.90;;;;;;4992351;28;20484;-65
2021/01/30 12:40:24;;;;;;;3.23;2.93;;;3.60;99.90;;;;;;4987964;28;20490;-65
2021/01/30 12:42:52;;;;;;;8.07;3.27;;;3.60;99.90;;;;;;4997087;28;20461;-66
2021/01/30 12:45:19;;;;;;;3.60;2.20;;;3.80;99.90;;;;;;4989153;28;20499;-66
2021/01/30 12:47:46;;;;;;;5.23;1.93;;;3.70;99.90;;;;;;4986692;28;20488;-67
2021/01/30 12:50:15;;;;;;;4.00;1.70;;;3.70;99.90;;;;;;4988030;28;21025;-66
2021/01/30 12:52:41;;;;;;;3.40;2.43;;;3.70;99.90;;;;;;4988489;28;20491;-66
2021/01/30 12:55:09;;;;;;;2.60;1.90;;;3.70;99.90;;;;;;4990891;28;20479;-66
2021/01/30 12:57:36;;;;;;;2.50;1.90;;;3.50;99.90;;;;;;4984884;28;20481;-66
2021/01/30 13:00:07;;;;;;;1.50;1.00;;;3.50;99.90;;;;;;4993049;28;20484;-66
2021/01/30 13:02:34;;;;;;;1.10;0.90;;;3.50;99.90;;;;;;4986527;28;20424;-66
2021/01/30 13:05:00;;;;;;;1.57;1.20;;;3.50;99.90;;;;;;4958721;28;20938;-66
2021/01/30 13:07:27;;;;;;;4.70;2.43;;;3.60;99.90;;;;;;4976776;28;20559;-66
2021/01/30 13:09:54;;;;;;;5.80;2.70;;;3.80;99.90;;;;;;4993068;28;20454;-66
2021/01/30 13:12:21;;;;;;;2.20;1.77;;;3.90;99.90;;;;;;4993988;28;20497;-66
2021/01/30 13:14:47;;;;;;;3.27;2.97;;;3.90;99.90;;;;;;4977330;28;20497;-66
2021/01/30 13:17:16;;;;;;;4.73;3.87;;;3.80;99.90;;;;;;4993216;28;20442;-66
2021/01/30 13:19:44;;;;;;;2.13;1.93;;;3.80;99.90;;;;;;4991282;28;20456;-66
2021/01/30 13:22:11;;;;;;;1.83;1.70;;;3.70;99.90;;;;;;4977970;28;20521;-67
2021/01/30 13:24:37;;;;;;;3.23;2.93;;;3.60;99.90;;;;;;4993025;28;20447;-66